Time;durP1;ratioP1;P1;durP2;ratioP2;P2;SDS_P1;SDS_P2;PMS_P1;PMS_P2;Temp;Humidity;BMP_temperature;BMP_pressure;BME280_temperature;BME280_humidity;BME280_pressure;Samples;Min_cycle;Max_cycle;Signal;HPM_P1;HPM_P2
2021/12/13 00:02:00;;;;;;;54.80;22.55;;;;;;;;;;5000307;28;20014;-82
2021/12/13 00:04:26;;;;;;;45.83;22.27;;;;;;;;;;4999497;28;20302;-82
2021/12/13 00:06:54;;;;;;;50.88;19.95;;;;;;;;;;4998324;28;20022;-82
2021/12/13 00:09:23;;;;;;;47.05;22.73;;;;;;;;;;5000147;28;20395;-82
2021/12/13 00:11:54;;;;;;;63.28;24.90;;;;;;;;;;5000270;28;20049;-82
2021/12/13 00:14:22;;;;;;;52.35;20.33;;;;;;;;;;4998035;28;20026;-82
2021/12/13 00:16:58;;;;;;;62.30;25.35;;;;;;;;;;4998015;28;20025;-82
2021/12/13 00:19:30;;;;;;;55.63;23.70;;;;;;;;;;4999982;28;20106;-82
2021/12/13 00:21:58;;;;;;;47.08;23.05;;;;;;;;;;4998570;28;20121;-82
2021/12/13 00:24:29;;;;;;;48.08;22.13;;;;;;;;;;4999200;28;20018;-82
2021/12/13 00:27:06;;;;;;;45.03;21.08;;;;;;;;;;4998299;28;20117;-82
2021/12/13 00:29:41;;;;;;;53.60;22.23;;;;;;;;;;5008577;23;20325;-82
2021/12/13 00:32:15;;;;;;;44.50;20.52;;;;;;;;;;5015972;23;20050;-77
2021/12/13 00:34:47;;;;;;;46.22;22.15;;;;;;;;;;4999313;28;20033;-78
2021/12/13 00:37:16;;;;;;;54.22;21.67;;;;;;;;;;4999480;28;20105;-78
2021/12/13 00:39:47;;;;;;;52.88;24.05;;;;;;;;;;4999468;28;20018;-78
2021/12/13 00:42:13;;;;;;;45.55;21.77;;;;;;;;;;4998775;28;20014;-78
2021/12/13 00:44:47;;;;;;;56.80;21.83;;;;;;;;;;4998799;28;20367;-78
2021/12/13 00:47:17;;;;;;;56.55;23.98;;;;;;;;;;4998967;28;20037;-78
2021/12/13 00:49:45;;;;;;;55.87;24.73;;;;;;;;;;4999019;28;20037;-78
2021/12/13 00:52:14;;;;;;;70.47;25.70;;;;;;;;;;4998791;28;20417;-78
2021/12/13 00:54:41;;;;;;;53.75;25.67;;;;;;;;;;4998828;28;20018;-78
2021/12/13 00:57:25;;;;;;;48.28;25.98;;;;;;;;;;4998189;28;20029;-77
2021/12/13 00:59:55;;;;;;;57.88;25.35;;;;;;;;;;4998510;28;20018;-78
2021/12/13 01:02:30;;;;;;;58.55;25.98;;;;;;;;;;4999275;28;20072;-78
2021/12/13 01:04:59;;;;;;;59.03;25.70;;;;;;;;;;4997920;28;20026;-78
2021/12/13 01:07:34;;;;;;;57.85;26.08;;;;;;;;;;4998158;28;20340;-78
2021/12/13 01:10:19;;;;;;;77.05;30.25;;;;;;;;;;4998564;28;20026;-78
2021/12/13 01:12:47;;;;;;;66.65;28.80;;;;;;;;;;4998299;28;20053;-78
2021/12/13 01:18:16;;;;;;;62.83;28.95;;;;;;;;;;5016468;23;20129;-83
2021/12/13 01:20:42;;;;;;;;;;;;;;;;;;5001355;28;20038;-82
2021/12/13 01:23:13;;;;;;;67.93;30.48;;;;;;;;;;5001857;28;19912;-83
2021/12/13 01:25:47;;;;;;;67.72;32.33;;;;;;;;;;5005056;23;20046;-77
2021/12/13 01:28:23;;;;;;;68.72;31.75;;;;;;;;;;5057974;23;20128;-83
2021/12/13 01:30:58;;;;;;;96.25;36.22;;;;;;;;;;4986157;28;20432;-82
2021/12/13 01:33:26;;;;;;;100.20;49.20;;;;;;;;;;5003293;23;20070;-77
2021/12/13 01:35:54;;;;;;;88.80;42.63;;;;;;;;;;4997292;28;20057;-77
2021/12/13 01:38:44;;;;;;;123.50;50.92;;;;;;;;;;4996172;28;20023;-77
2021/12/13 01:41:18;;;;;;;152.50;75.25;;;;;;;;;;4997324;28;20023;-77
2021/12/13 01:43:47;;;;;;;148.90;76.10;;;;;;;;;;4996572;28;20026;-77
2021/12/13 01:46:13;;;;;;;157.77;74.90;;;;;;;;;;4996095;28;20018;-76
2021/12/13 01:48:41;;;;;;;156.93;78.22;;;;;;;;;;4996198;28;20030;-77
2021/12/13 01:51:10;;;;;;;203.65;105.07;;;;;;;;;;4996935;28;20025;-77
2021/12/13 01:53:40;;;;;;;179.90;89.60;;;;;;;;;;4997623;28;20022;-76
2021/12/13 01:56:22;;;;;;;195.23;108.75;;;;;;;;;;4997330;28;20392;-77
2021/12/13 01:58:49;;;;;;;165.10;87.18;;;;;;;;;;5001239;28;20042;-78
2021/12/13 02:01:19;;;;;;;171.93;86.07;;;;;;;;;;5004080;28;20027;-77
2021/12/13 02:03:45;;;;;;;;;;;;;;;;;;4999696;28;20022;-76
2021/12/13 02:06:13;;;;;;;161.50;82.50;;;;;;;;;;4999765;28;19913;-76
2021/12/13 02:08:39;;;;;;;153.55;78.50;;;;;;;;;;5000063;28;20053;-76
2021/12/13 02:11:05;;;;;;;148.65;75.10;;;;;;;;;;4999375;28;20050;-76
2021/12/13 02:13:38;;;;;;;161.40;83.40;;;;;;;;;;5000682;28;20322;-76
2021/12/13 02:18:51;;;;;;;158.07;81.75;;;;;;;;;;5000128;28;20321;-76
2021/12/13 02:21:30;;;;;;;163.27;78.88;;;;;;;;;;5000609;28;20097;-77
2021/12/13 02:24:07;;;;;;;157.70;78.72;;;;;;;;;;4998437;28;20077;-77
2021/12/13 02:26:34;;;;;;;152.25;78.78;;;;;;;;;;4999204;28;20025;-76
2021/12/13 02:29:04;;;;;;;159.68;87.78;;;;;;;;;;4999661;28;20648;-77
2021/12/13 02:31:30;;;;;;;;;;;;;;;;;;4999673;28;20069;-77
2021/12/13 02:33:58;;;;;;;193.80;99.30;;;;;;;;;;4997830;28;19918;-76
2021/12/13 02:36:30;;;;;;;198.70;97.88;;;;;;;;;;5000450;28;20022;-76
2021/12/13 02:38:58;;;;;;;206.35;99.90;;;;;;;;;;5000821;28;20022;-77
2021/12/13 02:41:25;;;;;;;203.27;101.10;;;;;;;;;;4997714;28;20444;-76
2021/12/13 02:43:54;;;;;;;192.68;97.45;;;;;;;;;;4983746;28;20034;-75
2021/12/13 02:46:20;;;;;;;181.23;95.03;;;;;;;;;;4999167;28;20084;-76
2021/12/13 02:48:48;;;;;;;172.77;91.65;;;;;;;;;;4997272;28;20396;-75
2021/12/13 02:51:14;;;;;;;163.10;84.78;;;;;;;;;;5024891;23;20049;-76
2021/12/13 02:54:00;;;;;;;175.82;85.28;;;;;;;;;;4999020;28;20067;-74
2021/12/13 02:56:33;;;;;;;171.63;84.75;;;;;;;;;;4997574;28;20125;-76
2021/12/13 02:59:00;;;;;;;140.40;74.85;;;;;;;;;;4996873;28;20054;-75
2021/12/13 03:01:35;;;;;;;205.27;88.45;;;;;;;;;;4996072;28;20069;-75
2021/12/13 03:04:05;;;;;;;187.57;90.43;;;;;;;;;;4997278;28;20212;-75
2021/12/13 03:06:33;;;;;;;172.27;81.55;;;;;;;;;;4996762;28;20049;-76
2021/12/13 03:09:03;;;;;;;167.18;83.45;;;;;;;;;;4996329;28;20480;-74
2021/12/13 03:11:32;;;;;;;143.70;71.30;;;;;;;;;;4997330;28;20018;-75
2021/12/13 03:14:06;;;;;;;131.25;69.40;;;;;;;;;;4996690;28;20018;-75
2021/12/13 03:16:36;;;;;;;156.82;59.28;;;;;;;;;;4981500;28;20061;-76
2021/12/13 03:19:02;;;;;;;;;;;;;;;;;;4998091;28;20488;-76
2021/12/13 03:21:47;;;;;;;108.07;44.90;;;;;;;;;;4981224;28;19905;-76
2021/12/13 03:24:23;;;;;;;100.25;44.90;;;;;;;;;;4996868;28;20386;-75
2021/12/13 03:27:06;;;;;;;112.95;37.72;;;;;;;;;;4998300;28;20018;-75
2021/12/13 03:29:38;;;;;;;103.10;41.72;;;;;;;;;;4996904;28;20149;-77
2021/12/13 03:32:10;;;;;;;100.05;38.22;;;;;;;;;;5003609;23;20064;-82
2021/12/13 03:34:40;;;;;;;81.55;32.35;;;;;;;;;;5009688;23;20073;-82
2021/12/13 03:37:15;;;;;;;70.50;30.80;;;;;;;;;;5107501;23;20046;-83
2021/12/13 03:39:47;;;;;;;62.20;28.05;;;;;;;;;;5029638;23;20451;-76
2021/12/13 03:42:16;;;;;;;66.45;29.38;;;;;;;;;;4998948;28;20030;-76
2021/12/13 03:44:46;;;;;;;81.65;30.83;;;;;;;;;;5012807;23;20030;-83
2021/12/13 03:47:22;;;;;;;56.60;29.02;;;;;;;;;;5106678;23;20061;-82
2021/12/13 03:49:54;;;;;;;81.25;28.67;;;;;;;;;;5084143;23;2458192;-75
2021/12/13 03:52:23;;;;;;;63.00;29.00;;;;;;;;;;5054708;23;20070;-76
2021/12/13 03:54:50;;;;;;;54.78;28.73;;;;;;;;;;4996245;28;20037;-76
2021/12/13 03:57:17;;;;;;;69.57;31.15;;;;;;;;;;4997029;28;20022;-76
2021/12/13 03:59:45;;;;;;;69.82;27.33;;;;;;;;;;5056644;23;20026;-76
2021/12/13 04:02:16;;;;;;;76.65;31.13;;;;;;;;;;5021409;23;20084;-78
2021/12/13 04:09:42;;;;;;;80.32;32.25;;;;;;;;;;5006440;23;20070;-82
2021/12/13 04:12:09;;;;;;;78.13;33.60;;;;;;;;;;5024804;23;20018;-82
2021/12/13 04:14:41;;;;;;;82.00;34.33;;;;;;;;;;5010320;23;20039;-75
2021/12/13 04:19:52;;;;;;;78.57;32.50;;;;;;;;;;5308478;23;20058;-81
2021/12/13 04:22:22;;;;;;;104.75;50.95;;;;;;;;;;5005029;28;20018;-82
2021/12/13 04:24:51;;;;;;;84.18;43.30;;;;;;;;;;5005047;28;20320;-81
2021/12/13 04:27:23;;;;;;;100.22;41.53;;;;;;;;;;4998462;23;20050;-76
2021/12/13 04:29:54;;;;;;;83.28;35.53;;;;;;;;;;4996126;28;20333;-75
2021/12/13 04:32:23;;;;;;;74.97;31.88;;;;;;;;;;4993453;28;20023;-77
2021/12/13 04:34:51;;;;;;;81.10;32.25;;;;;;;;;;4996285;28;20056;-76
2021/12/13 04:37:19;;;;;;;78.72;34.28;;;;;;;;;;4993590;28;20044;-77
2021/12/13 04:39:48;;;;;;;71.50;33.85;;;;;;;;;;4997174;28;20029;-79
2021/12/13 04:42:16;;;;;;;83.90;34.78;;;;;;;;;;5001098;23;20062;-81
2021/12/13 04:44:50;;;;;;;73.72;30.98;;;;;;;;;;5003563;28;20054;-82
2021/12/13 04:47:21;;;;;;;87.40;36.47;;;;;;;;;;4998596;28;20425;-81
2021/12/13 04:49:52;;;;;;;91.90;37.53;;;;;;;;;;5000792;28;20407;-84
2021/12/13 04:52:20;;;;;;;99.43;37.63;;;;;;;;;;4988404;28;20018;-83
2021/12/13 04:54:48;;;;;;;62.80;34.03;;;;;;;;;;5051583;23;20360;-82
2021/12/13 04:57:18;;;;;;;76.55;34.70;;;;;;;;;;5068249;23;20046;-83
2021/12/13 05:02:19;;;;;;;82.65;34.33;;;;;;;;;;5310891;23;20307;-83
2021/12/13 05:04:49;;;;;;;71.20;32.00;;;;;;;;;;5002618;28;20116;-83
2021/12/13 05:07:15;;;;;;;81.18;34.50;;;;;;;;;;4997365;28;20113;-85
2021/12/13 05:09:45;;;;;;;78.15;31.80;;;;;;;;;;4990424;23;20460;-80
2021/12/13 05:12:22;;;;;;;77.03;34.13;;;;;;;;;;5063729;23;20038;-80
2021/12/13 05:14:51;;;;;;;76.43;35.72;;;;;;;;;;5108493;23;20372;-82
2021/12/13 05:17:19;;;;;;;78.95;34.25;;;;;;;;;;5086999;23;20046;-79
2021/12/13 05:19:47;;;;;;;93.00;32.80;;;;;;;;;;4983578;28;20370;-79
2021/12/13 05:22:21;;;;;;;78.35;36.58;;;;;;;;;;5079503;23;20101;-81
2021/12/13 05:24:59;;;;;;;108.90;38.33;;;;;;;;;;5119661;23;20409;-76
2021/12/13 05:27:34;;;;;;;69.18;36.90;;;;;;;;;;4996331;28;20027;-76
2021/12/13 05:37:54;;;;;;;71.53;33.00;;;;;;;;;;5019777;23;20046;-82
2021/12/13 05:43:12;;;;;;;61.60;30.48;;;;;;;;;;5108513;23;20153;-77
2021/12/13 05:48:14;;;;;;;60.75;28.98;;;;;;;;;;5291547;23;20054;-76
2021/12/13 05:50:42;;;;;;;55.50;26.85;;;;;;;;;;4977448;28;20018;-75
2021/12/13 05:53:11;;;;;;;63.60;31.40;;;;;;;;;;4994126;28;20022;-76
2021/12/13 05:55:50;;;;;;;66.43;28.08;;;;;;;;;;5048632;23;20096;-74
2021/12/13 05:58:36;;;;;;;65.93;30.23;;;;;;;;;;4992365;28;20022;-75
2021/12/13 06:01:04;;;;;;;67.95;32.63;;;;;;;;;;4993473;28;20202;-76
2021/12/13 06:03:33;;;;;;;55.95;31.05;;;;;;;;;;4994774;28;20377;-74
2021/12/13 06:06:05;;;;;;;64.40;31.17;;;;;;;;;;4993954;28;20031;-75
2021/12/13 06:08:34;;;;;;;64.38;29.08;;;;;;;;;;4976756;28;20045;-74
2021/12/13 06:11:03;;;;;;;91.10;32.53;;;;;;;;;;4992689;28;20018;-74
2021/12/13 06:13:44;;;;;;;79.30;27.48;;;;;;;;;;4993699;28;20417;-74
2021/12/13 06:16:12;;;;;;;56.22;20.90;;;;;;;;;;4993590;28;20082;-75
2021/12/13 06:18:50;;;;;;;57.85;26.40;;;;;;;;;;4995235;28;20058;-75
2021/12/13 06:21:35;;;;;;;63.38;25.83;;;;;;;;;;4976831;28;20094;-75
2021/12/13 06:24:01;;;;;;;64.03;27.42;;;;;;;;;;4979198;28;20025;-74
2021/12/13 06:26:30;;;;;;;59.95;28.35;;;;;;;;;;4995041;28;20389;-74
2021/12/13 06:28:58;;;;;;;68.97;26.45;;;;;;;;;;4993233;28;20036;-74
2021/12/13 06:31:33;;;;;;;59.20;28.52;;;;;;;;;;4996221;28;20429;-74
2021/12/13 06:34:05;;;;;;;57.95;24.00;;;;;;;;;;4995032;28;20078;-75
2021/12/13 06:36:47;;;;;;;57.47;22.85;;;;;;;;;;4994268;28;20030;-75
2021/12/13 06:39:31;;;;;;;64.90;25.98;;;;;;;;;;4992675;28;20078;-75
2021/12/13 06:42:01;;;;;;;66.70;26.38;;;;;;;;;;4994128;28;20420;-75
2021/12/13 06:44:37;;;;;;;66.28;26.63;;;;;;;;;;4981254;28;20034;-74
2021/12/13 06:47:09;;;;;;;64.25;25.05;;;;;;;;;;4982502;28;20019;-76
2021/12/13 06:49:35;;;;;;;62.70;24.35;;;;;;;;;;4998210;28;20022;-79
2021/12/13 06:52:08;;;;;;;77.65;24.65;;;;;;;;;;4983247;28;20035;-75
2021/12/13 06:54:40;;;;;;;47.33;18.67;;;;;;;;;;4998687;28;20026;-76
2021/12/13 06:57:15;;;;;;;38.60;20.85;;;;;;;;;;4998546;28;20026;-76
2021/12/13 07:00:04;;;;;;;43.95;21.70;;;;;;;;;;5003763;23;20046;-76
2021/12/13 07:02:49;;;;;;;50.08;19.90;;;;;;;;;;5000141;28;20081;-76
2021/12/13 07:05:23;;;;;;;44.95;19.73;;;;;;;;;;4998928;28;20029;-75
2021/12/13 07:07:55;;;;;;;50.58;19.95;;;;;;;;;;4997858;28;20050;-76
2021/12/13 07:10:26;;;;;;;42.13;18.48;;;;;;;;;;5055162;23;20151;-77
2021/12/13 07:12:54;;;;;;;39.40;18.30;;;;;;;;;;5047792;23;20050;-77
2021/12/13 07:15:27;;;;;;;49.15;21.75;;;;;;;;;;5018921;23;20048;-82
2021/12/13 07:18:20;;;;;;;48.65;22.45;;;;;;;;;;5010608;23;20046;-81
2021/12/13 07:20:49;;;;;;;49.42;26.33;;;;;;;;;;5007694;23;20098;-74
2021/12/13 07:23:15;;;;;;;68.07;30.30;;;;;;;;;;5000525;23;20145;-76
2021/12/13 07:25:44;;;;;;;55.65;28.48;;;;;;;;;;4997287;28;20026;-77
2021/12/13 07:28:10;;;;;;;82.45;30.25;;;;;;;;;;4996608;28;20345;-76
2021/12/13 07:30:37;;;;;;;67.90;30.42;;;;;;;;;;4995413;28;20026;-76
2021/12/13 07:33:05;;;;;;;94.10;39.53;;;;;;;;;;4996979;28;20409;-77
2021/12/13 07:35:40;;;;;;;69.88;34.88;;;;;;;;;;4998748;28;20340;-77
2021/12/13 07:38:26;;;;;;;64.93;31.40;;;;;;;;;;4996552;28;20025;-76
2021/12/13 07:40:54;;;;;;;60.00;34.60;;;;;;;;;;4995409;28;20026;-77
2021/12/13 07:43:22;;;;;;;61.38;29.02;;;;;;;;;;4997008;28;20037;-77
2021/12/13 07:45:57;;;;;;;47.55;24.25;;;;;;;;;;4997389;28;20022;-76
2021/12/13 07:48:29;;;;;;;49.03;22.42;;;;;;;;;;4998068;28;20030;-76
2021/12/13 07:51:18;;;;;;;61.53;30.08;;;;;;;;;;4997471;28;20023;-76
2021/12/13 07:53:44;;;;;;;55.15;28.38;;;;;;;;;;4997045;28;20352;-76
2021/12/13 07:56:12;;;;;;;47.20;27.73;;;;;;;;;;4997195;28;20029;-77
2021/12/13 07:58:45;;;;;;;58.17;22.30;;;;;;;;;;5000849;28;20029;-76
2021/12/13 08:01:13;;;;;;;30.88;17.73;;;;;;;;;;4997985;28;20033;-77
2021/12/13 08:03:44;;;;;;;37.72;19.27;;;;;;;;;;4998570;28;20361;-76
2021/12/13 08:06:11;;;;;;;29.83;17.75;;;;;;;;;;4996182;28;20100;-76
2021/12/13 08:08:44;;;;;;;50.30;19.88;;;;;;;;;;4979038;28;20073;-76
2021/12/13 08:11:10;;;;;;;38.53;17.35;;;;;;;;;;4996470;28;20424;-76
2021/12/13 08:13:36;;;;;;;43.85;18.65;;;;;;;;;;4997873;28;20045;-76
2021/12/13 08:16:06;;;;;;;36.47;19.40;;;;;;;;;;4998613;28;20023;-76
2021/12/13 08:18:36;;;;;;;50.92;19.65;;;;;;;;;;4994368;28;20018;-76
2021/12/13 08:21:05;;;;;;;;;;;;;;;;;;4997375;28;20121;-76
2021/12/13 08:23:35;;;;;;;38.78;19.15;;;;;;;;;;4997279;28;19920;-76
2021/12/13 08:26:01;;;;;;;;;;;;;;;;;;4997741;28;20416;-77
2021/12/13 08:28:33;;;;;;;44.45;19.30;;;;;;;;;;4996011;28;19937;-76
2021/12/13 08:31:00;;;;;;;39.88;22.13;;;;;;;;;;4995803;28;20033;-77
2021/12/13 08:33:32;;;;;;;34.47;19.45;;;;;;;;;;4997559;28;20029;-76
2021/12/13 08:36:07;;;;;;;51.13;19.48;;;;;;;;;;4996158;28;20023;-76
2021/12/13 08:38:36;;;;;;;52.55;23.65;;;;;;;;;;4996899;28;20019;-77
2021/12/13 08:41:16;;;;;;;48.92;21.08;;;;;;;;;;4996476;28;20022;-78
2021/12/13 08:43:51;;;;;;;45.80;21.17;;;;;;;;;;4996977;28;20306;-78
2021/12/13 08:46:35;;;;;;;47.13;22.65;;;;;;;;;;4998213;28;20333;-78
2021/12/13 08:49:11;;;;;;;36.50;18.10;;;;;;;;;;4997042;28;20038;-78
2021/12/13 08:51:47;;;;;;;40.42;17.13;;;;;;;;;;4996124;28;20451;-78
2021/12/13 08:54:15;;;;;;;39.83;20.48;;;;;;;;;;4996580;28;20027;-78
2021/12/13 08:56:44;;;;;;;50.63;21.23;;;;;;;;;;4996183;28;20046;-77
2021/12/13 08:59:18;;;;;;;43.72;21.27;;;;;;;;;;4998141;28;20022;-77
2021/12/13 09:02:07;;;;;;;41.05;20.38;;;;;;;;;;4996413;28;20018;-77
2021/12/13 09:04:38;;;;;;;35.28;18.33;;;;;;;;;;4996774;28;20574;-77
2021/12/13 09:17:31;;;;;;;60.13;25.52;;;;;;;;;;4996445;28;20069;-76
2021/12/13 09:26:25;;;;;;;69.80;22.83;;;;;;;;;;4998762;28;20022;-77
2021/12/13 09:28:53;;;;;;;44.80;19.70;;;;;;;;;;4996473;28;20030;-78
2021/12/13 09:33:49;;;;;;;50.13;18.52;;;;;;;;;;5049743;23;20050;-82
2021/12/13 09:36:28;;;;;;;40.75;17.90;;;;;;;;;;4982570;28;20018;-82
2021/12/13 09:39:02;;;;;;;32.58;17.63;;;;;;;;;;4998269;28;20034;-83
2021/12/13 09:41:35;;;;;;;29.38;13.98;;;;;;;;;;4997514;28;20018;-82
2021/12/13 09:44:01;;;;;;;41.97;18.38;;;;;;;;;;4999469;28;20435;-82
2021/12/13 09:46:30;;;;;;;38.20;16.60;;;;;;;;;;4982370;28;20026;-82
2021/12/13 09:48:57;;;;;;;35.85;15.18;;;;;;;;;;4997348;28;20037;-83
2021/12/13 09:51:36;;;;;;;30.35;15.13;;;;;;;;;;4981518;28;20416;-83
2021/12/13 09:54:05;;;;;;;35.70;14.10;;;;;;;;;;4999180;28;20440;-83
2021/12/13 09:56:35;;;;;;;28.10;15.13;;;;;;;;;;4981980;28;20026;-83
2021/12/13 09:59:22;;;;;;;47.15;14.38;;;;;;;;;;4980769;28;20022;-82
2021/12/13 10:01:49;;;;;;;24.10;13.65;;;;;;;;;;4998334;28;20022;-83
2021/12/13 10:04:38;;;;;;;40.53;17.02;;;;;;;;;;5038593;23;20058;-77
2021/12/13 10:07:15;;;;;;;26.08;14.27;;;;;;;;;;4989728;28;20042;-75
2021/12/13 10:09:43;;;;;;;40.80;15.30;;;;;;;;;;4996541;28;20129;-78
2021/12/13 10:12:20;;;;;;;26.10;13.88;;;;;;;;;;4996827;28;20092;-76
2021/12/13 10:14:56;;;;;;;39.33;14.13;;;;;;;;;;4997623;28;20022;-76
2021/12/13 10:17:25;;;;;;;35.47;16.50;;;;;;;;;;4997111;28;20030;-75
2021/12/13 10:19:52;;;;;;;35.90;16.48;;;;;;;;;;5000525;28;20030;-76
2021/12/13 10:22:23;;;;;;;34.30;15.35;;;;;;;;;;5001516;28;20149;-77
2021/12/13 10:24:52;;;;;;;30.05;16.20;;;;;;;;;;4988677;23;20042;-77
2021/12/13 10:27:18;;;;;;;41.55;16.55;;;;;;;;;;5001087;28;20490;-76
2021/12/13 10:29:50;;;;;;;28.73;16.05;;;;;;;;;;5000416;28;20026;-77
2021/12/13 10:32:24;;;;;;;29.83;15.02;;;;;;;;;;5000168;28;20347;-75
2021/12/13 10:34:53;;;;;;;35.53;18.10;;;;;;;;;;5000899;28;20018;-75
2021/12/13 10:37:21;;;;;;;33.05;17.83;;;;;;;;;;5000576;28;20112;-76
2021/12/13 10:39:50;;;;;;;33.60;18.25;;;;;;;;;;5000076;28;20019;-74
2021/12/13 10:42:22;;;;;;;51.75;20.75;;;;;;;;;;5000281;28;20033;-75
2021/12/13 10:44:48;;;;;;;37.53;18.23;;;;;;;;;;4999829;28;20206;-76
2021/12/13 10:47:25;;;;;;;50.05;20.67;;;;;;;;;;4999269;28;20054;-77
2021/12/13 10:49:52;;;;;;;48.05;21.90;;;;;;;;;;4999519;28;20026;-76
2021/12/13 10:52:23;;;;;;;46.95;22.60;;;;;;;;;;5000778;28;20026;-77
2021/12/13 10:54:52;;;;;;;40.95;22.38;;;;;;;;;;5000639;28;20018;-77
2021/12/13 10:57:22;;;;;;;43.50;23.48;;;;;;;;;;5000576;28;20030;-77
2021/12/13 10:59:49;;;;;;;50.78;24.17;;;;;;;;;;5000627;28;20073;-77
2021/12/13 11:02:18;;;;;;;53.05;25.08;;;;;;;;;;5000824;28;20050;-77
2021/12/13 11:04:47;;;;;;;48.78;24.25;;;;;;;;;;5000159;28;20053;-78
2021/12/13 11:07:13;;;;;;;65.65;25.60;;;;;;;;;;4999924;28;20419;-77
2021/12/13 11:09:40;;;;;;;49.55;25.48;;;;;;;;;;5001559;28;20022;-77
2021/12/13 11:12:12;;;;;;;53.33;26.50;;;;;;;;;;5000519;28;20096;-77
2021/12/13 11:14:41;;;;;;;54.67;27.35;;;;;;;;;;5000563;28;20046;-76
2021/12/13 11:17:15;;;;;;;54.22;25.20;;;;;;;;;;5000242;28;20395;-76
2021/12/13 11:19:43;;;;;;;62.28;26.67;;;;;;;;;;4982510;28;20079;-77
2021/12/13 11:22:11;;;;;;;61.92;26.67;;;;;;;;;;4999325;28;20018;-77
2021/12/13 11:24:39;;;;;;;49.33;25.73;;;;;;;;;;4999867;28;20026;-77
2021/12/13 11:27:08;;;;;;;61.55;27.52;;;;;;;;;;4999877;28;20041;-76
2021/12/13 11:29:35;;;;;;;71.70;28.87;;;;;;;;;;5002043;28;20034;-76
2021/12/13 11:32:20;;;;;;;70.53;30.25;;;;;;;;;;5001421;28;20105;-77
2021/12/13 11:34:58;;;;;;;60.90;27.85;;;;;;;;;;4999905;28;20030;-76
2021/12/13 11:37:43;;;;;;;63.50;26.45;;;;;;;;;;4999927;28;20076;-76
2021/12/13 11:40:27;;;;;;;82.47;30.52;;;;;;;;;;4999761;28;20031;-75
2021/12/13 11:43:03;;;;;;;68.28;27.27;;;;;;;;;;4999690;28;20081;-76
2021/12/13 11:45:47;;;;;;;87.57;42.03;;;;;;;;;;4998491;28;20018;-75
2021/12/13 11:48:32;;;;;;;99.88;47.17;;;;;;;;;;4997855;28;20038;-76
2021/12/13 11:51:18;;;;;;;107.03;42.10;;;;;;;;;;4999222;28;20356;-76
2021/12/13 11:53:50;;;;;;;79.28;40.38;;;;;;;;;;4989478;28;20102;-76
2021/12/13 11:56:15;;;;;;;117.25;56.40;;;;;;;;;;4999658;28;20022;-75
2021/12/13 11:59:00;;;;;;;113.00;55.42;;;;;;;;;;4998598;28;20048;-76
2021/12/13 12:01:29;;;;;;;166.98;91.43;;;;;;;;;;4999355;28;20026;-76
2021/12/13 12:04:07;;;;;;;163.35;93.88;;;;;;;;;;4999432;28;20050;-76
2021/12/13 12:06:42;;;;;;;158.05;73.82;;;;;;;;;;4999857;28;20037;-76
2021/12/13 12:09:20;;;;;;;137.77;70.90;;;;;;;;;;4982183;28;20038;-76
2021/12/13 12:12:14;;;;;;;134.40;71.95;;;;;;;;;;4999174;28;20022;-76
2021/12/13 12:14:40;;;;;;;171.32;84.70;;;;;;;;;;4998045;28;20484;-76
2021/12/13 12:17:07;;;;;;;237.00;116.80;;;;;;;;;;4998020;28;20057;-76
2021/12/13 12:19:34;;;;;;;188.68;98.45;;;;;;;;;;4999153;28;20101;-76
2021/12/13 12:22:05;;;;;;;181.32;91.20;;;;;;;;;;4981574;28;20349;-76
2021/12/13 12:24:34;;;;;;;193.57;101.35;;;;;;;;;;4999464;28;20074;-75
2021/12/13 12:27:04;;;;;;;212.98;106.00;;;;;;;;;;4999011;28;20022;-76
2021/12/13 12:29:31;;;;;;;225.40;116.18;;;;;;;;;;4998973;28;20101;-76
2021/12/13 12:32:18;;;;;;;208.75;107.72;;;;;;;;;;4998900;28;20104;-75
2021/12/13 12:34:50;;;;;;;187.63;92.93;;;;;;;;;;4981340;28;20029;-76
2021/12/13 12:37:30;;;;;;;197.65;93.20;;;;;;;;;;4998334;28;20436;-76
2021/12/13 12:40:19;;;;;;;220.30;99.15;;;;;;;;;;4980767;28;20417;-76
2021/12/13 12:42:47;;;;;;;237.55;114.00;;;;;;;;;;4990637;28;20041;-76
2021/12/13 12:45:15;;;;;;;261.52;123.75;;;;;;;;;;4998689;28;20021;-76
2021/12/13 12:47:47;;;;;;;247.48;119.78;;;;;;;;;;4998961;28;20034;-76
2021/12/13 12:50:18;;;;;;;271.20;148.82;;;;;;;;;;4998620;28;20084;-76
2021/12/13 12:52:48;;;;;;;259.98;134.10;;;;;;;;;;4997333;28;20429;-76
2021/12/13 12:55:15;;;;;;;271.17;132.93;;;;;;;;;;4998550;28;20022;-77
2021/12/13 12:57:41;;;;;;;225.95;125.85;;;;;;;;;;4981220;28;20397;-77
2021/12/13 13:00:08;;;;;;;186.73;96.72;;;;;;;;;;4998410;28;20026;-76
2021/12/13 13:02:34;;;;;;;161.75;70.05;;;;;;;;;;4996514;28;20392;-76
2021/12/13 13:05:03;;;;;;;115.57;57.58;;;;;;;;;;4997688;28;20052;-76
2021/12/13 13:07:34;;;;;;;112.20;54.03;;;;;;;;;;4998256;28;20018;-76
2021/12/13 13:10:03;;;;;;;84.93;41.50;;;;;;;;;;4998201;28;20026;-76
2021/12/13 13:12:29;;;;;;;79.80;42.20;;;;;;;;;;4997754;28;20046;-76
2021/12/13 13:15:08;;;;;;;89.25;44.30;;;;;;;;;;4996853;28;20120;-76
2021/12/13 13:17:38;;;;;;;90.40;47.70;;;;;;;;;;4997811;28;20022;-76
2021/12/13 13:20:08;;;;;;;95.13;47.42;;;;;;;;;;4998124;28;20026;-77
2021/12/13 13:22:35;;;;;;;93.00;42.03;;;;;;;;;;4997236;28;20118;-76
2021/12/13 13:25:06;;;;;;;92.70;50.97;;;;;;;;;;4997967;28;20037;-76
2021/12/13 13:27:33;;;;;;;102.72;49.97;;;;;;;;;;4998199;28;20015;-76
2021/12/13 13:30:00;;;;;;;83.70;43.92;;;;;;;;;;4997918;28;20022;-76
2021/12/13 13:32:26;;;;;;;93.72;43.97;;;;;;;;;;4998000;28;20014;-76
2021/12/13 13:34:56;;;;;;;77.32;38.40;;;;;;;;;;4998069;28;20022;-76
2021/12/13 13:37:30;;;;;;;75.33;38.83;;;;;;;;;;4998599;28;20018;-77
2021/12/13 13:40:00;;;;;;;85.55;40.72;;;;;;;;;;4998072;28;20022;-77
2021/12/13 13:42:29;;;;;;;70.57;41.00;;;;;;;;;;4996996;28;20023;-76
2021/12/13 13:44:58;;;;;;;76.35;43.20;;;;;;;;;;4997874;28;20028;-76
2021/12/13 13:47:35;;;;;;;74.97;37.25;;;;;;;;;;4997188;28;20022;-78
2021/12/13 13:50:21;;;;;;;71.50;38.08;;;;;;;;;;4997892;28;20428;-75
2021/12/13 13:52:48;;;;;;;92.97;42.33;;;;;;;;;;5001723;28;20404;-78
2021/12/13 13:55:37;;;;;;;78.95;43.85;;;;;;;;;;5006027;28;20088;-76
2021/12/13 13:58:05;;;;;;;72.28;40.55;;;;;;;;;;5004412;28;20030;-77
2021/12/13 14:00:42;;;;;;;79.32;38.13;;;;;;;;;;5003237;28;20028;-77
2021/12/13 14:03:09;;;;;;;81.03;40.00;;;;;;;;;;5004159;28;20026;-76
2021/12/13 14:05:37;;;;;;;84.45;42.05;;;;;;;;;;5003085;28;20024;-76
2021/12/13 14:08:03;;;;;;;84.93;42.60;;;;;;;;;;5004190;28;20104;-76
2021/12/13 14:10:31;;;;;;;105.32;44.38;;;;;;;;;;5004725;28;20030;-76
2021/12/13 14:13:07;;;;;;;102.05;43.80;;;;;;;;;;5003720;28;20022;-76
2021/12/13 14:15:35;;;;;;;89.00;47.38;;;;;;;;;;5003536;28;20069;-76
2021/12/13 14:18:06;;;;;;;107.85;52.42;;;;;;;;;;5004252;28;20014;-76
2021/12/13 14:20:34;;;;;;;100.38;51.42;;;;;;;;;;5005517;28;20479;-76
2021/12/13 14:23:12;;;;;;;106.95;53.65;;;;;;;;;;5002975;28;20026;-76
2021/12/13 14:25:39;;;;;;;96.70;50.42;;;;;;;;;;5004208;28;20109;-76
2021/12/13 14:28:06;;;;;;;106.82;55.03;;;;;;;;;;5002830;28;20034;-76
2021/12/13 14:30:35;;;;;;;102.78;58.22;;;;;;;;;;5004066;28;20117;-76
2021/12/13 14:33:01;;;;;;;138.13;73.28;;;;;;;;;;5002986;28;20109;-76
2021/12/13 14:35:32;;;;;;;157.93;83.55;;;;;;;;;;5004118;28;20046;-76
2021/12/13 14:38:04;;;;;;;149.45;80.90;;;;;;;;;;5004149;28;20019;-76
2021/12/13 14:40:40;;;;;;;153.80;85.00;;;;;;;;;;5003490;28;20053;-76
2021/12/13 14:43:14;;;;;;;147.15;82.97;;;;;;;;;;5003931;28;20022;-76
2021/12/13 14:45:41;;;;;;;158.45;86.72;;;;;;;;;;5003974;28;20025;-76
2021/12/13 14:48:07;;;;;;;135.32;73.43;;;;;;;;;;5003887;28;20031;-76
2021/12/13 14:50:33;;;;;;;149.23;78.85;;;;;;;;;;5004667;28;20019;-76
2021/12/13 14:53:01;;;;;;;165.15;83.28;;;;;;;;;;5003812;28;20030;-76
2021/12/13 14:55:31;;;;;;;167.20;86.68;;;;;;;;;;5003352;28;20014;-76
2021/12/13 14:58:00;;;;;;;174.40;88.50;;;;;;;;;;5003930;28;20022;-76
2021/12/13 15:00:31;;;;;;;197.85;99.85;;;;;;;;;;5002753;28;20330;-76
2021/12/13 15:03:04;;;;;;;191.63;97.97;;;;;;;;;;5003444;28;20025;-76
2021/12/13 15:05:34;;;;;;;189.05;98.72;;;;;;;;;;4999810;28;20022;-76
2021/12/13 15:08:01;;;;;;;198.43;102.88;;;;;;;;;;5000666;28;20452;-76
2021/12/13 15:10:32;;;;;;;212.63;111.00;;;;;;;;;;5000773;28;20421;-76
2021/12/13 15:13:00;;;;;;;217.93;113.07;;;;;;;;;;5000727;28;20050;-76
2021/12/13 15:15:32;;;;;;;229.80;117.40;;;;;;;;;;5000767;28;20026;-76
2021/12/13 15:18:01;;;;;;;260.08;133.63;;;;;;;;;;5000685;28;20333;-76
2021/12/13 15:20:29;;;;;;;281.83;134.15;;;;;;;;;;5000012;28;20022;-76
2021/12/13 15:22:57;;;;;;;267.42;137.23;;;;;;;;;;4999133;28;20475;-76
2021/12/13 15:25:26;;;;;;;293.90;151.45;;;;;;;;;;4998651;28;20113;-76
2021/12/13 15:27:52;;;;;;;235.93;125.07;;;;;;;;;;4999213;28;20138;-76